sensor_id;sensor_type;location;lat;lon;timestamp;temperature;humidity
14908;DHT22;7545;52.092;7.006;2023-04-21T00:02:01;10.70;99.90
14908;DHT22;7545;52.092;7.006;2023-04-21T00:04:27;10.70;99.90
14908;DHT22;7545;52.092;7.006;2023-04-21T00:06:53;10.70;99.90
14908;DHT22;7545;52.092;7.006;2023-04-21T00:09:20;10.70;99.90
14908;DHT22;7545;52.092;7.006;2023-04-21T00:11:46;10.70;99.90
14908;DHT22;7545;52.092;7.006;2023-04-21T00:14:18;10.70;99.90
14908;DHT22;7545;52.092;7.006;2023-04-21T00:16:44;10.70;99.90
14908;DHT22;7545;52.092;7.006;2023-04-21T00:19:09;10.70;99.90
14908;DHT22;7545;52.092;7.006;2023-04-21T00:21:38;10.70;99.90
14908;DHT22;7545;52.092;7.006;2023-04-21T00:24:04;10.80;99.90
14908;DHT22;7545;52.092;7.006;2023-04-21T00:26:30;10.80;99.90
14908;DHT22;7545;52.092;7.006;2023-04-21T00:28:55;10.80;99.90
14908;DHT22;7545;52.092;7.006;2023-04-21T00:31:21;10.80;99.90
14908;DHT22;7545;52.092;7.006;2023-04-21T00:33:47;10.80;99.90
14908;DHT22;7545;52.092;7.006;2023-04-21T00:36:12;10.80;99.90
14908;DHT22;7545;52.092;7.006;2023-04-21T00:38:38;10.90;99.90
14908;DHT22;7545;52.092;7.006;2023-04-21T00:41:03;10.90;99.90
14908;DHT22;7545;52.092;7.006;2023-04-21T00:43:29;10.80;99.90
14908;DHT22;7545;52.092;7.006;2023-04-21T00:45:55;10.90;99.90
14908;DHT22;7545;52.092;7.006;2023-04-21T00:48:20;10.90;99.90
14908;DHT22;7545;52.092;7.006;2023-04-21T00:50:46;10.90;99.90
14908;DHT22;7545;52.092;7.006;2023-04-21T00:53:13;10.90;99.90
14908;DHT22;7545;52.092;7.006;2023-04-21T00:55:39;10.90;99.90
14908;DHT22;7545;52.092;7.006;2023-04-21T00:58:05;11.00;99.90
14908;DHT22;7545;52.092;7.006;2023-04-21T01:00:31;11.00;99.90
14908;DHT22;7545;52.092;7.006;2023-04-21T01:02:59;11.00;99.90
14908;DHT22;7545;52.092;7.006;2023-04-21T01:05:25;10.90;99.90
14908;DHT22;7545;52.092;7.006;2023-04-21T01:07:51;10.90;99.90
14908;DHT22;7545;52.092;7.006;2023-04-21T01:10:17;11.00;99.90
14908;DHT22;7545;52.092;7.006;2023-04-21T01:12:46;11.00;99.90
14908;DHT22;7545;52.092;7.006;2023-04-21T01:15:13;11.00;99.90
14908;DHT22;7545;52.092;7.006;2023-04-21T01:17:39;11.00;99.90
14908;DHT22;7545;52.092;7.006;2023-04-21T01:20:11;11.00;99.90
14908;DHT22;7545;52.092;7.006;2023-04-21T01:22:38;11.00;99.90
14908;DHT22;7545;52.092;7.006;2023-04-21T01:25:05;11.10;99.90
14908;DHT22;7545;52.092;7.006;2023-04-21T01:27:31;11.10;99.90
14908;DHT22;7545;52.092;7.006;2023-04-21T01:29:57;11.10;99.90
14908;DHT22;7545;52.092;7.006;2023-04-21T01:32:25;11.10;99.90
14908;DHT22;7545;52.092;7.006;2023-04-21T01:34:51;11.10;99.90
14908;DHT22;7545;52.092;7.006;2023-04-21T01:37:20;11.10;99.90
14908;DHT22;7545;52.092;7.006;2023-04-21T01:39:48;11.20;99.90
14908;DHT22;7545;52.092;7.006;2023-04-21T01:42:17;11.10;99.90
14908;DHT22;7545;52.092;7.006;2023-04-21T01:44:43;11.20;99.90
14908;DHT22;7545;52.092;7.006;2023-04-21T01:47:08;11.20;99.90
14908;DHT22;7545;52.092;7.006;2023-04-21T01:49:34;11.20;99.90
14908;DHT22;7545;52.092;7.006;2023-04-21T01:52:00;11.20;99.90
14908;DHT22;7545;52.092;7.006;2023-04-21T01:54:25;11.20;99.90
14908;DHT22;7545;52.092;7.006;2023-04-21T01:56:51;11.20;99.90
14908;DHT22;7545;52.092;7.006;2023-04-21T01:59:16;11.20;99.90
14908;DHT22;7545;52.092;7.006;2023-04-21T02:01:42;11.20;99.90
14908;DHT22;7545;52.092;7.006;2023-04-21T02:04:08;11.20;99.90
14908;DHT22;7545;52.092;7.006;2023-04-21T02:06:33;11.20;99.90
14908;DHT22;7545;52.092;7.006;2023-04-21T02:08:59;11.20;99.90
14908;DHT22;7545;52.092;7.006;2023-04-21T02:11:24;11.20;99.90
14908;DHT22;7545;52.092;7.006;2023-04-21T02:13:54;11.20;99.90
14908;DHT22;7545;52.092;7.006;2023-04-21T02:16:21;11.20;99.90
14908;DHT22;7545;52.092;7.006;2023-04-21T02:18:51;11.20;99.90
14908;DHT22;7545;52.092;7.006;2023-04-21T02:21:16;11.20;99.90
14908;DHT22;7545;52.092;7.006;2023-04-21T02:23:42;11.20;99.90
14908;DHT22;7545;52.092;7.006;2023-04-21T02:26:07;11.20;99.90
14908;DHT22;7545;52.092;7.006;2023-04-21T02:28:33;11.20;99.90
14908;DHT22;7545;52.092;7.006;2023-04-21T02:30:59;11.20;99.90
14908;DHT22;7545;52.092;7.006;2023-04-21T02:33:24;11.20;99.90
14908;DHT22;7545;52.092;7.006;2023-04-21T02:35:50;11.20;99.90
14908;DHT22;7545;52.092;7.006;2023-04-21T02:38:16;11.20;99.90
14908;DHT22;7545;52.092;7.006;2023-04-21T02:40:41;11.20;99.90
14908;DHT22;7545;52.092;7.006;2023-04-21T02:43:10;11.20;99.90
14908;DHT22;7545;52.092;7.006;2023-04-21T02:45:37;11.20;99.90
14908;DHT22;7545;52.092;7.006;2023-04-21T02:48:02;11.20;99.90
14908;DHT22;7545;52.092;7.006;2023-04-21T02:50:28;11.20;99.90
14908;DHT22;7545;52.092;7.006;2023-04-21T02:52:53;11.20;99.90
14908;DHT22;7545;52.092;7.006;2023-04-21T02:55:19;11.20;99.90
14908;DHT22;7545;52.092;7.006;2023-04-21T02:57:47;11.20;99.90
14908;DHT22;7545;52.092;7.006;2023-04-21T03:00:13;11.20;99.90
14908;DHT22;7545;52.092;7.006;2023-04-21T03:02:39;11.30;99.90
14908;DHT22;7545;52.092;7.006;2023-04-21T03:05:04;11.30;99.90
14908;DHT22;7545;52.092;7.006;2023-04-21T03:07:31;11.30;99.90
14908;DHT22;7545;52.092;7.006;2023-04-21T03:09:56;11.20;99.90
14908;DHT22;7545;52.092;7.006;2023-04-21T03:12:22;11.30;99.90
14908;DHT22;7545;52.092;7.006;2023-04-21T03:14:48;11.30;99.90
14908;DHT22;7545;52.092;7.006;2023-04-21T03:17:13;11.30;99.90
14908;DHT22;7545;52.092;7.006;2023-04-21T03:19:39;11.30;99.90
14908;DHT22;7545;52.092;7.006;2023-04-21T03:22:05;11.30;99.90
14908;DHT22;7545;52.092;7.006;2023-04-21T03:24:31;11.30;99.90
14908;DHT22;7545;52.092;7.006;2023-04-21T03:26:57;11.30;99.90
14908;DHT22;7545;52.092;7.006;2023-04-21T03:29:22;11.30;99.90
14908;DHT22;7545;52.092;7.006;2023-04-21T03:31:48;11.30;99.90
14908;DHT22;7545;52.092;7.006;2023-04-21T03:34:14;11.30;99.90
14908;DHT22;7545;52.092;7.006;2023-04-21T03:36:39;11.30;99.90
14908;DHT22;7545;52.092;7.006;2023-04-21T03:39:05;11.30;99.90
14908;DHT22;7545;52.092;7.006;2023-04-21T03:41:32;11.30;99.90
14908;DHT22;7545;52.092;7.006;2023-04-21T03:43:58;11.20;99.90
14908;DHT22;7545;52.092;7.006;2023-04-21T03:46:24;11.30;99.90
14908;DHT22;7545;52.092;7.006;2023-04-21T03:48:50;11.20;99.90
14908;DHT22;7545;52.092;7.006;2023-04-21T03:51:15;11.30;99.90
14908;DHT22;7545;52.092;7.006;2023-04-21T03:53:41;11.20;99.90
14908;DHT22;7545;52.092;7.006;2023-04-21T03:56:07;11.20;99.90
14908;DHT22;7545;52.092;7.006;2023-04-21T03:58:33;11.20;99.90
14908;DHT22;7545;52.092;7.006;2023-04-21T04:00:59;11.20;99.90
14908;DHT22;7545;52.092;7.006;2023-04-21T04:03:25;11.20;99.90
14908;DHT22;7545;52.092;7.006;2023-04-21T04:05:50;11.20;99.90
14908;DHT22;7545;52.092;7.006;2023-04-21T04:08:16;11.20;99.90
14908;DHT22;7545;52.092;7.006;2023-04-21T04:10:41;11.20;99.90
14908;DHT22;7545;52.092;7.006;2023-04-21T04:13:07;11.20;99.90
14908;DHT22;7545;52.092;7.006;2023-04-21T04:15:32;11.20;99.90
14908;DHT22;7545;52.092;7.006;2023-04-21T04:17:58;11.20;99.90
14908;DHT22;7545;52.092;7.006;2023-04-21T04:20:24;11.20;99.90
14908;DHT22;7545;52.092;7.006;2023-04-21T04:22:50;11.20;99.90
14908;DHT22;7545;52.092;7.006;2023-04-21T04:25:16;11.20;99.90
14908;DHT22;7545;52.092;7.006;2023-04-21T04:27:42;11.20;99.90
14908;DHT22;7545;52.092;7.006;2023-04-21T04:30:11;11.20;99.90
14908;DHT22;7545;52.092;7.006;2023-04-21T04:32:37;11.20;99.90
14908;DHT22;7545;52.092;7.006;2023-04-21T04:35:08;11.20;99.90
14908;DHT22;7545;52.092;7.006;2023-04-21T04:37:37;11.20;99.90
14908;DHT22;7545;52.092;7.006;2023-04-21T04:40:04;11.20;99.90
14908;DHT22;7545;52.092;7.006;2023-04-21T04:42:31;11.20;99.90
14908;DHT22;7545;52.092;7.006;2023-04-21T04:44:57;11.20;99.90
14908;DHT22;7545;52.092;7.006;2023-04-21T04:47:24;11.20;99.90
14908;DHT22;7545;52.092;7.006;2023-04-21T04:49:49;11.20;99.90
14908;DHT22;7545;52.092;7.006;2023-04-21T04:52:15;11.20;99.90
14908;DHT22;7545;52.092;7.006;2023-04-21T04:54:41;11.30;99.90
14908;DHT22;7545;52.092;7.006;2023-04-21T04:57:06;11.30;99.90
14908;DHT22;7545;52.092;7.006;2023-04-21T04:59:32;11.30;99.90
14908;DHT22;7545;52.092;7.006;2023-04-21T05:01:58;11.30;99.90
14908;DHT22;7545;52.092;7.006;2023-04-21T05:04:24;11.30;99.90
14908;DHT22;7545;52.092;7.006;2023-04-21T05:06:49;11.30;99.90
14908;DHT22;7545;52.092;7.006;2023-04-21T05:09:15;11.30;99.90
14908;DHT22;7545;52.092;7.006;2023-04-21T05:11:41;11.30;99.90
14908;DHT22;7545;52.092;7.006;2023-04-21T05:14:06;11.30;99.90
14908;DHT22;7545;52.092;7.006;2023-04-21T05:16:32;11.30;99.90
14908;DHT22;7545;52.092;7.006;2023-04-21T05:19:02;11.30;99.90
14908;DHT22;7545;52.092;7.006;2023-04-21T05:21:28;11.30;99.90
14908;DHT22;7545;52.092;7.006;2023-04-21T05:23:56;11.30;99.90
14908;DHT22;7545;52.092;7.006;2023-04-21T05:26:22;11.30;99.90
14908;DHT22;7545;52.092;7.006;2023-04-21T05:28:48;11.30;99.90
14908;DHT22;7545;52.092;7.006;2023-04-21T05:31:14;11.30;99.90
14908;DHT22;7545;52.092;7.006;2023-04-21T05:33:39;11.30;99.90
14908;DHT22;7545;52.092;7.006;2023-04-21T05:36:09;11.30;99.90
14908;DHT22;7545;52.092;7.006;2023-04-21T05:38:35;11.30;99.90
14908;DHT22;7545;52.092;7.006;2023-04-21T05:41:02;11.30;99.90
14908;DHT22;7545;52.092;7.006;2023-04-21T05:43:27;11.30;99.90
14908;DHT22;7545;52.092;7.006;2023-04-21T05:45:53;11.30;99.90
14908;DHT22;7545;52.092;7.006;2023-04-21T05:48:19;11.40;99.90
14908;DHT22;7545;52.092;7.006;2023-04-21T05:50:44;11.30;99.90
14908;DHT22;7545;52.092;7.006;2023-04-21T05:53:10;11.30;99.90
14908;DHT22;7545;52.092;7.006;2023-04-21T05:55:36;11.30;99.90
14908;DHT22;7545;52.092;7.006;2023-04-21T05:58:02;11.30;99.90
14908;DHT22;7545;52.092;7.006;2023-04-21T06:00:28;11.30;99.90
14908;DHT22;7545;52.092;7.006;2023-04-21T06:02:54;11.30;99.90
14908;DHT22;7545;52.092;7.006;2023-04-21T06:05:20;11.30;99.90
14908;DHT22;7545;52.092;7.006;2023-04-21T06:07:46;11.30;99.90
14908;DHT22;7545;52.092;7.006;2023-04-21T06:10:13;11.30;99.90
14908;DHT22;7545;52.092;7.006;2023-04-21T06:12:38;11.40;99.90
14908;DHT22;7545;52.092;7.006;2023-04-21T06:15:05;11.40;99.90
14908;DHT22;7545;52.092;7.006;2023-04-21T06:17:31;11.40;99.90
14908;DHT22;7545;52.092;7.006;2023-04-21T06:19:56;11.40;99.90
14908;DHT22;7545;52.092;7.006;2023-04-21T06:22:22;11.40;99.90
14908;DHT22;7545;52.092;7.006;2023-04-21T06:24:48;11.40;99.90
14908;DHT22;7545;52.092;7.006;2023-04-21T06:27:14;11.50;99.90
14908;DHT22;7545;52.092;7.006;2023-04-21T06:29:40;11.50;99.90
14908;DHT22;7545;52.092;7.006;2023-04-21T06:32:07;11.50;99.90
14908;DHT22;7545;52.092;7.006;2023-04-21T06:34:33;11.50;99.90
14908;DHT22;7545;52.092;7.006;2023-04-21T06:36:58;11.50;99.90
14908;DHT22;7545;52.092;7.006;2023-04-21T06:39:24;11.60;99.90
14908;DHT22;7545;52.092;7.006;2023-04-21T06:41:50;11.60;99.90
14908;DHT22;7545;52.092;7.006;2023-04-21T06:44:18;11.60;99.90
14908;DHT22;7545;52.092;7.006;2023-04-21T06:46:44;11.60;99.90
14908;DHT22;7545;52.092;7.006;2023-04-21T06:49:10;11.60;99.90
14908;DHT22;7545;52.092;7.006;2023-04-21T06:51:36;11.60;99.90
14908;DHT22;7545;52.092;7.006;2023-04-21T06:54:02;11.60;99.90
14908;DHT22;7545;52.092;7.006;2023-04-21T06:56:28;11.60;99.90
14908;DHT22;7545;52.092;7.006;2023-04-21T06:58:54;11.70;99.90
14908;DHT22;7545;52.092;7.006;2023-04-21T07:01:19;11.70;99.90
14908;DHT22;7545;52.092;7.006;2023-04-21T07:03:45;11.60;99.90
14908;DHT22;7545;52.092;7.006;2023-04-21T07:06:11;11.70;99.90
14908;DHT22;7545;52.092;7.006;2023-04-21T07:08:37;11.70;99.90
14908;DHT22;7545;52.092;7.006;2023-04-21T07:11:03;11.70;99.90
14908;DHT22;7545;52.092;7.006;2023-04-21T07:13:28;11.70;99.90
14908;DHT22;7545;52.092;7.006;2023-04-21T07:15:55;11.80;99.90
14908;DHT22;7545;52.092;7.006;2023-04-21T07:18:20;11.80;99.90
14908;DHT22;7545;52.092;7.006;2023-04-21T07:20:46;11.80;99.90
14908;DHT22;7545;52.092;7.006;2023-04-21T07:23:11;11.90;99.90
14908;DHT22;7545;52.092;7.006;2023-04-21T07:25:37;11.90;99.90
14908;DHT22;7545;52.092;7.006;2023-04-21T07:28:03;11.90;99.90
14908;DHT22;7545;52.092;7.006;2023-04-21T07:30:29;11.90;99.90
14908;DHT22;7545;52.092;7.006;2023-04-21T07:32:56;12.00;99.90
14908;DHT22;7545;52.092;7.006;2023-04-21T07:35:22;12.00;99.90
14908;DHT22;7545;52.092;7.006;2023-04-21T07:37:47;12.10;99.90
14908;DHT22;7545;52.092;7.006;2023-04-21T07:40:13;12.10;99.90
14908;DHT22;7545;52.092;7.006;2023-04-21T07:42:39;12.20;99.90
14908;DHT22;7545;52.092;7.006;2023-04-21T07:45:05;12.20;99.90
14908;DHT22;7545;52.092;7.006;2023-04-21T07:47:32;12.30;99.90
14908;DHT22;7545;52.092;7.006;2023-04-21T07:49:58;12.40;99.90
14908;DHT22;7545;52.092;7.006;2023-04-21T07:52:26;12.40;99.90
14908;DHT22;7545;52.092;7.006;2023-04-21T07:54:52;12.50;99.90
14908;DHT22;7545;52.092;7.006;2023-04-21T07:57:17;12.60;99.90
14908;DHT22;7545;52.092;7.006;2023-04-21T07:59:43;12.60;99.90
14908;DHT22;7545;52.092;7.006;2023-04-21T08:02:09;12.70;99.90
14908;DHT22;7545;52.092;7.006;2023-04-21T08:04:34;12.70;99.90
14908;DHT22;7545;52.092;7.006;2023-04-21T08:07:00;12.80;99.90
14908;DHT22;7545;52.092;7.006;2023-04-21T08:09:26;12.90;99.90
14908;DHT22;7545;52.092;7.006;2023-04-21T08:11:52;12.90;99.90
14908;DHT22;7545;52.092;7.006;2023-04-21T08:14:19;13.00;99.90
14908;DHT22;7545;52.092;7.006;2023-04-21T08:16:45;13.00;99.90
14908;DHT22;7545;52.092;7.006;2023-04-21T08:19:10;13.10;99.90
14908;DHT22;7545;52.092;7.006;2023-04-21T08:21:36;13.20;99.90
14908;DHT22;7545;52.092;7.006;2023-04-21T08:24:02;13.20;99.90
14908;DHT22;7545;52.092;7.006;2023-04-21T08:26:28;13.30;99.90
14908;DHT22;7545;52.092;7.006;2023-04-21T08:28:55;13.40;99.90
14908;DHT22;7545;52.092;7.006;2023-04-21T08:31:21;13.40;99.90
14908;DHT22;7545;52.092;7.006;2023-04-21T08:33:47;13.50;99.90
14908;DHT22;7545;52.092;7.006;2023-04-21T08:36:13;13.50;99.90
14908;DHT22;7545;52.092;7.006;2023-04-21T08:38:41;13.60;99.90
14908;DHT22;7545;52.092;7.006;2023-04-21T08:41:07;13.70;99.90
14908;DHT22;7545;52.092;7.006;2023-04-21T08:43:33;13.70;99.90
14908;DHT22;7545;52.092;7.006;2023-04-21T08:45:59;13.70;99.90
14908;DHT22;7545;52.092;7.006;2023-04-21T08:48:27;13.80;99.90
14908;DHT22;7545;52.092;7.006;2023-04-21T08:50:54;13.80;99.90
14908;DHT22;7545;52.092;7.006;2023-04-21T08:53:19;13.90;99.90
14908;DHT22;7545;52.092;7.006;2023-04-21T08:55:47;14.00;99.90
14908;DHT22;7545;52.092;7.006;2023-04-21T08:58:16;14.00;99.90
14908;DHT22;7545;52.092;7.006;2023-04-21T09:00:41;14.00;99.90
14908;DHT22;7545;52.092;7.006;2023-04-21T09:03:07;14.10;99.90
14908;DHT22;7545;52.092;7.006;2023-04-21T09:05:33;14.10;99.90
14908;DHT22;7545;52.092;7.006;2023-04-21T09:08:11;14.20;99.90
14908;DHT22;7545;52.092;7.006;2023-04-21T09:10:47;14.20;99.90
14908;DHT22;7545;52.092;7.006;2023-04-21T09:13:13;14.20;99.90
14908;DHT22;7545;52.092;7.006;2023-04-21T09:15:43;14.30;99.90
14908;DHT22;7545;52.092;7.006;2023-04-21T09:18:14;14.30;99.90
14908;DHT22;7545;52.092;7.006;2023-04-21T09:20:41;14.30;99.90
14908;DHT22;7545;52.092;7.006;2023-04-21T09:23:08;14.30;99.90
14908;DHT22;7545;52.092;7.006;2023-04-21T09:25:37;14.30;99.90
14908;DHT22;7545;52.092;7.006;2023-04-21T09:28:05;14.30;99.90
14908;DHT22;7545;52.092;7.006;2023-04-21T09:30:34;14.30;99.90
14908;DHT22;7545;52.092;7.006;2023-04-21T09:33:00;14.30;99.90
14908;DHT22;7545;52.092;7.006;2023-04-21T09:35:32;14.40;99.90
14908;DHT22;7545;52.092;7.006;2023-04-21T09:38:00;14.30;99.90
14908;DHT22;7545;52.092;7.006;2023-04-21T09:40:30;14.40;99.90
14908;DHT22;7545;52.092;7.006;2023-04-21T09:42:56;14.50;99.90
14908;DHT22;7545;52.092;7.006;2023-04-21T09:45:30;14.50;99.90
14908;DHT22;7545;52.092;7.006;2023-04-21T09:47:58;14.50;99.90
14908;DHT22;7545;52.092;7.006;2023-04-21T09:50:28;14.60;99.90
14908;DHT22;7545;52.092;7.006;2023-04-21T09:52:55;14.70;99.90
14908;DHT22;7545;52.092;7.006;2023-04-21T09:55:27;14.70;99.90
14908;DHT22;7545;52.092;7.006;2023-04-21T09:57:57;14.80;99.90
14908;DHT22;7545;52.092;7.006;2023-04-21T10:00:26;14.90;99.90
14908;DHT22;7545;52.092;7.006;2023-04-21T10:02:57;15.00;99.90
14908;DHT22;7545;52.092;7.006;2023-04-21T10:05:22;15.00;99.90
14908;DHT22;7545;52.092;7.006;2023-04-21T10:07:49;15.00;99.90
14908;DHT22;7545;52.092;7.006;2023-04-21T10:10:23;15.00;99.90
14908;DHT22;7545;52.092;7.006;2023-04-21T10:12:49;15.00;99.90
14908;DHT22;7545;52.092;7.006;2023-04-21T10:18:30;15.10;99.90
14908;DHT22;7545;52.092;7.006;2023-04-21T10:21:07;15.20;99.90
14908;DHT22;7545;52.092;7.006;2023-04-21T10:23:42;15.30;99.90
14908;DHT22;7545;52.092;7.006;2023-04-21T10:31:35;15.40;99.90
14908;DHT22;7545;52.092;7.006;2023-04-21T10:39:28;15.50;99.90
14908;DHT22;7545;52.092;7.006;2023-04-21T10:42:16;15.50;99.90
14908;DHT22;7545;52.092;7.006;2023-04-21T10:48:06;15.60;99.90
14908;DHT22;7545;52.092;7.006;2023-04-21T10:50:23;15.70;99.90
14908;DHT22;7545;52.092;7.006;2023-04-21T10:53:10;15.70;99.90
14908;DHT22;7545;52.092;7.006;2023-04-21T10:55:36;15.80;99.90
14908;DHT22;7545;52.092;7.006;2023-04-21T10:58:04;15.80;99.90
14908;DHT22;7545;52.092;7.006;2023-04-21T11:00:30;15.80;99.90
14908;DHT22;7545;52.092;7.006;2023-04-21T11:03:06;15.90;99.90
14908;DHT22;7545;52.092;7.006;2023-04-21T11:05:35;15.90;99.90
14908;DHT22;7545;52.092;7.006;2023-04-21T11:08:04;15.90;99.90
14908;DHT22;7545;52.092;7.006;2023-04-21T11:10:40;15.90;99.90
14908;DHT22;7545;52.092;7.006;2023-04-21T11:13:06;15.90;99.90
14908;DHT22;7545;52.092;7.006;2023-04-21T11:15:32;15.90;99.90
14908;DHT22;7545;52.092;7.006;2023-04-21T11:17:58;15.90;99.90
14908;DHT22;7545;52.092;7.006;2023-04-21T11:20:23;15.90;99.90
14908;DHT22;7545;52.092;7.006;2023-04-21T11:22:51;15.80;99.90
14908;DHT22;7545;52.092;7.006;2023-04-21T11:25:17;15.80;99.90
14908;DHT22;7545;52.092;7.006;2023-04-21T11:27:52;15.80;99.90
14908;DHT22;7545;52.092;7.006;2023-04-21T11:30:18;15.80;99.90
14908;DHT22;7545;52.092;7.006;2023-04-21T11:32:45;15.80;99.90
14908;DHT22;7545;52.092;7.006;2023-04-21T11:35:11;15.80;99.90
14908;DHT22;7545;52.092;7.006;2023-04-21T11:37:36;15.90;99.90
14908;DHT22;7545;52.092;7.006;2023-04-21T11:40:02;15.90;99.90
14908;DHT22;7545;52.092;7.006;2023-04-21T11:42:30;16.00;99.90
14908;DHT22;7545;52.092;7.006;2023-04-21T11:44:56;16.00;99.90
14908;DHT22;7545;52.092;7.006;2023-04-21T11:47:26;16.00;99.90
14908;DHT22;7545;52.092;7.006;2023-04-21T11:49:57;16.10;99.90
14908;DHT22;7545;52.092;7.006;2023-04-21T11:54:55;16.20;99.90
14908;DHT22;7545;52.092;7.006;2023-04-21T11:57:21;16.20;99.90
14908;DHT22;7545;52.092;7.006;2023-04-21T11:59:47;16.30;99.90
14908;DHT22;7545;52.092;7.006;2023-04-21T12:02:23;16.30;99.90
14908;DHT22;7545;52.092;7.006;2023-04-21T12:05:06;16.30;99.90
14908;DHT22;7545;52.092;7.006;2023-04-21T12:07:34;16.40;99.90
14908;DHT22;7545;52.092;7.006;2023-04-21T12:10:00;16.50;99.90
14908;DHT22;7545;52.092;7.006;2023-04-21T12:12:27;16.60;99.90
14908;DHT22;7545;52.092;7.006;2023-04-21T12:14:53;16.70;99.90
14908;DHT22;7545;52.092;7.006;2023-04-21T12:17:21;16.80;99.90
14908;DHT22;7545;52.092;7.006;2023-04-21T12:19:47;16.80;99.90
14908;DHT22;7545;52.092;7.006;2023-04-21T12:22:17;16.90;99.90
14908;DHT22;7545;52.092;7.006;2023-04-21T12:24:43;17.00;99.90
14908;DHT22;7545;52.092;7.006;2023-04-21T12:27:09;17.00;99.90
14908;DHT22;7545;52.092;7.006;2023-04-21T12:29:35;17.10;99.90
14908;DHT22;7545;52.092;7.006;2023-04-21T12:32:03;17.10;99.90
14908;DHT22;7545;52.092;7.006;2023-04-21T12:34:29;17.10;99.90
14908;DHT22;7545;52.092;7.006;2023-04-21T12:36:54;17.10;99.90
14908;DHT22;7545;52.092;7.006;2023-04-21T12:39:20;17.20;99.90
14908;DHT22;7545;52.092;7.006;2023-04-21T12:41:46;17.20;99.90
14908;DHT22;7545;52.092;7.006;2023-04-21T12:44:12;17.20;99.90
14908;DHT22;7545;52.092;7.006;2023-04-21T12:46:38;17.20;99.90
14908;DHT22;7545;52.092;7.006;2023-04-21T12:49:04;17.20;99.90
14908;DHT22;7545;52.092;7.006;2023-04-21T12:51:32;17.20;99.90
14908;DHT22;7545;52.092;7.006;2023-04-21T12:53:57;17.20;99.90
14908;DHT22;7545;52.092;7.006;2023-04-21T12:56:23;17.30;99.90
14908;DHT22;7545;52.092;7.006;2023-04-21T12:58:49;17.20;99.90
14908;DHT22;7545;52.092;7.006;2023-04-21T13:01:14;17.20;99.90
14908;DHT22;7545;52.092;7.006;2023-04-21T13:03:41;17.10;99.90
14908;DHT22;7545;52.092;7.006;2023-04-21T13:06:07;17.10;99.90
14908;DHT22;7545;52.092;7.006;2023-04-21T13:08:33;17.10;99.90
14908;DHT22;7545;52.092;7.006;2023-04-21T13:10:58;17.10;99.90
14908;DHT22;7545;52.092;7.006;2023-04-21T13:13:24;17.10;99.90
14908;DHT22;7545;52.092;7.006;2023-04-21T13:15:50;17.10;99.90
14908;DHT22;7545;52.092;7.006;2023-04-21T13:18:16;17.00;99.90
14908;DHT22;7545;52.092;7.006;2023-04-21T13:20:42;17.00;99.90
14908;DHT22;7545;52.092;7.006;2023-04-21T13:23:07;17.00;99.90
14908;DHT22;7545;52.092;7.006;2023-04-21T13:25:33;17.10;99.90
14908;DHT22;7545;52.092;7.006;2023-04-21T13:27:59;17.20;99.90
14908;DHT22;7545;52.092;7.006;2023-04-21T13:30:25;17.30;99.90
14908;DHT22;7545;52.092;7.006;2023-04-21T13:32:51;17.50;99.90
14908;DHT22;7545;52.092;7.006;2023-04-21T13:35:17;17.80;99.90
14908;DHT22;7545;52.092;7.006;2023-04-21T13:37:42;18.00;99.90
14908;DHT22;7545;52.092;7.006;2023-04-21T13:40:09;18.20;99.90
14908;DHT22;7545;52.092;7.006;2023-04-21T13:42:35;18.40;99.90
14908;DHT22;7545;52.092;7.006;2023-04-21T13:45:01;18.50;99.90
14908;DHT22;7545;52.092;7.006;2023-04-21T13:47:32;18.60;99.90
14908;DHT22;7545;52.092;7.006;2023-04-21T13:49:57;18.80;99.90
14908;DHT22;7545;52.092;7.006;2023-04-21T13:52:23;18.90;99.90
14908;DHT22;7545;52.092;7.006;2023-04-21T13:54:50;18.90;99.90
14908;DHT22;7545;52.092;7.006;2023-04-21T13:57:17;18.90;99.90
14908;DHT22;7545;52.092;7.006;2023-04-21T13:59:43;18.90;99.90
14908;DHT22;7545;52.092;7.006;2023-04-21T14:02:09;18.80;99.90
14908;DHT22;7545;52.092;7.006;2023-04-21T14:04:34;18.80;99.90
14908;DHT22;7545;52.092;7.006;2023-04-21T14:07:01;18.80;99.90
14908;DHT22;7545;52.092;7.006;2023-04-21T14:09:27;18.80;99.90
14908;DHT22;7545;52.092;7.006;2023-04-21T14:11:53;18.70;99.90
14908;DHT22;7545;52.092;7.006;2023-04-21T14:14:18;18.70;99.90
14908;DHT22;7545;52.092;7.006;2023-04-21T14:16:47;18.60;99.90
14908;DHT22;7545;52.092;7.006;2023-04-21T14:19:16;18.60;99.90
14908;DHT22;7545;52.092;7.006;2023-04-21T14:21:42;18.60;99.90
14908;DHT22;7545;52.092;7.006;2023-04-21T14:24:08;18.60;99.90
14908;DHT22;7545;52.092;7.006;2023-04-21T14:26:33;18.50;99.90
14908;DHT22;7545;52.092;7.006;2023-04-21T14:29:00;18.50;99.90
14908;DHT22;7545;52.092;7.006;2023-04-21T14:31:26;18.50;99.90
14908;DHT22;7545;52.092;7.006;2023-04-21T14:33:52;18.50;99.90
14908;DHT22;7545;52.092;7.006;2023-04-21T14:36:18;18.50;99.90
14908;DHT22;7545;52.092;7.006;2023-04-21T14:38:43;18.50;99.90
14908;DHT22;7545;52.092;7.006;2023-04-21T14:41:09;18.50;99.90
14908;DHT22;7545;52.092;7.006;2023-04-21T14:43:34;18.50;99.90
14908;DHT22;7545;52.092;7.006;2023-04-21T14:46:00;18.50;99.90
14908;DHT22;7545;52.092;7.006;2023-04-21T14:48:26;18.50;99.90
14908;DHT22;7545;52.092;7.006;2023-04-21T14:50:52;18.50;99.90
14908;DHT22;7545;52.092;7.006;2023-04-21T14:53:18;18.40;99.90
14908;DHT22;7545;52.092;7.006;2023-04-21T14:55:44;18.40;99.90
14908;DHT22;7545;52.092;7.006;2023-04-21T14:58:10;18.40;99.90
14908;DHT22;7545;52.092;7.006;2023-04-21T15:00:35;18.30;99.90
14908;DHT22;7545;52.092;7.006;2023-04-21T15:03:02;18.30;99.90
14908;DHT22;7545;52.092;7.006;2023-04-21T15:05:27;18.20;99.90
14908;DHT22;7545;52.092;7.006;2023-04-21T15:07:53;18.20;99.90
14908;DHT22;7545;52.092;7.006;2023-04-21T15:10:19;18.10;99.90
14908;DHT22;7545;52.092;7.006;2023-04-21T15:12:44;18.00;99.90
14908;DHT22;7545;52.092;7.006;2023-04-21T15:15:10;17.90;99.90
14908;DHT22;7545;52.092;7.006;2023-04-21T15:17:36;17.90;99.90
14908;DHT22;7545;52.092;7.006;2023-04-21T15:20:02;17.90;99.90
14908;DHT22;7545;52.092;7.006;2023-04-21T15:22:28;17.80;99.90
14908;DHT22;7545;52.092;7.006;2023-04-21T15:24:53;17.80;99.90
14908;DHT22;7545;52.092;7.006;2023-04-21T15:27:22;17.70;99.90
14908;DHT22;7545;52.092;7.006;2023-04-21T15:29:48;17.70;99.90
14908;DHT22;7545;52.092;7.006;2023-04-21T15:32:13;17.70;99.90
14908;DHT22;7545;52.092;7.006;2023-04-21T15:34:39;17.60;99.90
14908;DHT22;7545;52.092;7.006;2023-04-21T15:37:05;17.60;99.90
14908;DHT22;7545;52.092;7.006;2023-04-21T15:39:30;17.60;99.90
14908;DHT22;7545;52.092;7.006;2023-04-21T15:41:56;17.50;99.90
14908;DHT22;7545;52.092;7.006;2023-04-21T15:44:23;17.50;99.90
14908;DHT22;7545;52.092;7.006;2023-04-21T15:46:49;17.50;99.90
14908;DHT22;7545;52.092;7.006;2023-04-21T15:49:15;17.50;99.90
14908;DHT22;7545;52.092;7.006;2023-04-21T15:51:40;17.40;99.90
14908;DHT22;7545;52.092;7.006;2023-04-21T15:54:06;17.40;99.90
14908;DHT22;7545;52.092;7.006;2023-04-21T15:56:32;17.30;99.90
14908;DHT22;7545;52.092;7.006;2023-04-21T15:58:57;17.30;99.90
14908;DHT22;7545;52.092;7.006;2023-04-21T16:01:23;17.30;99.90